Time;durP1;ratioP1;P1;durP2;ratioP2;P2;SDS_P1;SDS_P2;PMS_P1;PMS_P2;Temp;Humidity;BMP_temperature;BMP_pressure;BME280_temperature;BME280_humidity;BME280_pressure;Samples;Min_cycle;Max_cycle;Signal;HPM_P1;HPM_P2
2021/08/21 00:01:07;;;;;;;4.75;4.35;;;;;;;18.82;71.32;99639.02;1641484;87;21039;-73
2021/08/21 00:03:34;;;;;;;5.17;4.30;;;;;;;18.80;71.44;99632.50;1645126;87;21505;-73
2021/08/21 00:06:01;;;;;;;5.17;4.67;;;;;;;18.77;71.61;99628.23;1645015;86;21986;-79
2021/08/21 00:08:28;;;;;;;4.85;4.40;;;;;;;18.73;71.75;99630.22;1646193;87;21098;-74
2021/08/21 00:10:56;;;;;;;4.78;4.10;;;;;;;18.68;71.88;99630.32;1645750;86;20951;-74
2021/08/21 00:13:23;;;;;;;4.53;4.12;;;;;;;18.63;72.11;99633.70;1644002;87;21064;-82
2021/08/21 00:15:50;;;;;;;4.53;4.15;;;;;;;18.60;72.23;99635.13;1646206;87;21562;-80
2021/08/21 00:18:18;;;;;;;4.90;4.40;;;;;;;18.57;72.42;99626.73;1629797;87;20981;-78
2021/08/21 00:20:46;;;;;;;4.65;4.25;;;;;;;18.54;72.55;99634.17;1646488;86;21028;-78
2021/08/21 00:23:13;;;;;;;5.37;4.83;;;;;;;18.49;72.73;99636.41;1646276;86;21099;-77
2021/08/21 00:25:41;;;;;;;7.78;4.12;;;;;;;18.44;73.00;99637.06;1645926;86;21158;-75
2021/08/21 00:28:07;;;;;;;4.45;4.05;;;;;;;18.42;73.12;99639.27;1644236;87;21097;-80
2021/08/21 00:30:34;;;;;;;5.62;5.03;;;;;;;18.39;73.32;99639.33;1633816;84;21135;-77
2021/08/21 00:33:00;;;;;;;4.70;4.30;;;;;;;18.39;73.44;99642.61;1634015;87;21003;-79
2021/08/21 00:35:26;;;;;;;5.50;4.78;;;;;;;18.35;73.52;99638.33;1639512;86;20983;-84
2021/08/21 00:37:53;;;;;;;6.92;5.17;;;;;;;18.20;74.74;99633.17;1634757;87;20963;-84
2021/08/21 00:40:20;;;;;;;5.08;4.67;;;;;;;18.05;75.49;99630.17;1634153;88;21062;-83
2021/08/21 00:42:47;;;;;;;6.40;5.17;;;;;;;18.10;75.20;99631.44;1634170;88;20980;-81
2021/08/21 00:45:13;;;;;;;6.00;5.50;;;;;;;18.13;75.08;99636.27;1610084;88;20991;-82
2021/08/21 00:47:39;;;;;;;9.70;6.35;;;;;;;18.14;75.28;99631.64;1636174;87;21062;-83
2021/08/21 00:50:07;;;;;;;10.50;7.35;;;;;;;18.15;75.39;99627.27;1640835;87;20905;-84
2021/08/21 00:52:38;;;;;;;7.62;6.33;;;;;;;18.21;75.33;99638.32;1640641;87;20997;-84
2021/08/21 00:55:03;;;;;;;10.43;6.00;;;;;;;18.30;75.19;99633.79;1634832;88;21039;-85
2021/08/21 00:57:29;;;;;;;7.08;5.53;;;;;;;18.37;74.93;99640.17;1635441;88;20990;-85
2021/08/21 00:59:56;;;;;;;6.53;5.83;;;;;;;18.39;74.82;99633.08;1635821;83;20904;-85
2021/08/21 01:02:24;;;;;;;7.03;5.30;;;;;;;18.39;74.79;99632.52;1636013;84;20947;-83
2021/08/21 01:04:55;;;;;;;9.43;5.65;;;;;;;18.38;74.85;99634.17;1639313;86;21159;-80
2021/08/21 01:07:28;;;;;;;6.62;5.40;;;;;;;18.35;75.01;99634.80;1635851;87;21537;-80
2021/08/21 01:10:14;;;;;;;6.78;6.10;;;;;;;18.29;75.15;99636.25;1636373;87;20965;-80
2021/08/21 01:12:47;;;;;;;5.58;5.00;;;;;;;18.25;75.51;99638.52;1631414;87;20995;-77
2021/08/21 01:15:13;;;;;;;8.88;5.03;;;;;;;18.19;75.82;99639.72;1609163;88;21516;-82
2021/08/21 01:17:42;;;;;;;5.92;5.40;;;;;;;18.16;76.16;99637.05;1623593;87;21567;-77
2021/08/21 01:20:10;;;;;;;7.78;5.60;;;;;;;18.18;76.48;99638.09;1575263;91;21089;-78
2021/08/21 01:22:40;;;;;;;5.87;5.37;;;;;;;18.15;76.72;99629.18;1601329;89;21593;-77
2021/08/21 01:25:23;;;;;;;5.92;5.42;;;;;;;18.11;77.03;99625.45;1602759;89;21071;-79
2021/08/21 01:27:50;;;;;;;5.53;5.00;;;;;;;18.06;77.60;99626.91;1604205;89;21538;-78
2021/08/21 01:30:18;;;;;;;8.18;4.95;;;;;;;18.00;78.21;99632.98;1600976;87;21075;-78
2021/08/21 01:32:49;;;;;;;7.17;4.85;;;;;;;17.98;78.63;99622.16;1604127;88;21830;-78
2021/08/21 01:37:59;;;;;;;5.08;4.67;;;;;;;17.96;79.44;99627.89;1870932;76;22642;-77
2021/08/21 01:40:30;;;;;;;7.25;5.08;;;;;;;17.88;79.64;99627.23;1779467;78;20913;-76
2021/08/21 01:42:58;;;;;;;8.45;5.60;;;;;;;17.86;80.15;99622.08;1790829;80;21825;-78
2021/08/21 01:45:25;;;;;;;6.03;4.78;;;;;;;17.88;80.44;99622.34;1790403;80;20955;-78
2021/08/21 01:47:52;;;;;;;6.17;5.58;;;;;;;17.89;80.60;99626.11;1792453;78;21559;-78
2021/08/21 01:50:19;;;;;;;7.65;5.87;;;;;;;17.89;80.75;99625.33;1823888;78;21472;-78
2021/08/21 01:52:50;;;;;;;5.72;5.03;;;;;;;17.87;81.08;99631.05;1809346;78;21002;-78
2021/08/21 01:55:29;;;;;;;5.62;5.12;;;;;;;17.84;81.23;99636.52;1774059;79;33366;-80
2021/08/21 01:57:57;;;;;;;5.28;4.87;;;;;;;17.84;81.42;99637.89;1732257;82;20950;-79
2021/08/21 02:00:29;;;;;;;6.75;6.15;;;;;;;17.85;81.53;99638.70;1715388;82;21540;-80
2021/08/21 02:02:57;;;;;;;5.92;5.42;;;;;;;17.85;81.75;99643.59;1731042;82;21015;-79
2021/08/21 02:05:31;;;;;;;5.67;4.95;;;;;;;17.82;81.91;99640.66;1717047;82;21049;-80
2021/08/21 02:07:57;;;;;;;6.53;5.92;;;;;;;17.82;82.01;99642.84;1732335;82;21121;-79
2021/08/21 02:10:24;;;;;;;5.65;5.15;;;;;;;17.84;82.01;99637.89;1725766;81;20986;-79
2021/08/21 02:12:52;;;;;;;6.50;5.90;;;;;;;17.87;81.94;99635.14;1762789;81;21516;-81
2021/08/21 02:15:21;;;;;;;6.60;6.00;;;;;;;17.86;81.92;99639.77;1767790;80;20945;-81
2021/08/21 02:17:51;;;;;;;9.70;5.12;;;;;;;17.85;81.87;99633.25;1781646;80;20878;-79
2021/08/21 02:20:23;;;;;;;5.70;5.20;;;;;;;17.82;81.98;99638.75;1765532;80;21161;-79
2021/08/21 02:22:49;;;;;;;5.87;5.22;;;;;;;17.79;82.22;99641.27;1781587;80;20929;-79
2021/08/21 02:25:17;;;;;;;5.67;5.12;;;;;;;17.77;82.28;99640.75;1782410;80;21456;-79
2021/08/21 02:27:56;;;;;;;6.65;6.05;;;;;;;17.74;82.48;99641.36;1761415;80;20988;-81
2021/08/21 02:30:14;;;;;;;5.60;5.05;;;;;;;17.70;82.62;99638.95;1763261;81;20995;-80
2021/08/21 02:32:40;;;;;;;7.15;6.45;;;;;;;17.65;82.79;99639.07;1759694;81;21269;-81
2021/08/21 02:35:07;;;;;;;6.83;5.90;;;;;;;17.62;83.12;99643.72;1761305;81;20990;-81
2021/08/21 02:37:34;;;;;;;8.90;7.37;;;;;;;17.61;83.21;99641.55;1757897;80;20999;-80
2021/08/21 02:40:02;;;;;;;6.33;5.72;;;;;;;17.60;83.26;99646.73;1754453;82;20853;-80
2021/08/21 02:42:28;;;;;;;5.97;5.47;;;;;;;17.58;83.35;99642.13;1754487;82;20968;-80
2021/08/21 02:44:56;;;;;;;7.00;5.67;;;;;;;17.55;83.48;99647.36;1753992;82;21495;-79
2021/08/21 02:47:22;;;;;;;5.95;5.37;;;;;;;17.50;83.84;99649.61;1755734;81;20998;-79
2021/08/21 02:49:48;;;;;;;5.50;5.00;;;;;;;17.47;84.05;99646.66;1758513;81;20943;-78
2021/08/21 02:52:15;;;;;;;6.17;5.53;;;;;;;17.45;84.25;99648.33;1755896;81;20936;-78
2021/08/21 02:54:41;;;;;;;9.35;6.00;;;;;;;17.43;84.59;99650.52;1756294;81;21066;-79
2021/08/21 02:57:08;;;;;;;5.67;5.20;;;;;;;17.42;84.81;99655.70;1758766;81;21454;-80
2021/08/21 02:59:35;;;;;;;10.53;5.97;;;;;;;17.40;85.02;99651.13;1758487;81;20973;-79
2021/08/21 03:02:03;;;;;;;6.05;5.47;;;;;;;17.36;85.29;99652.24;1744744;81;20947;-80
2021/08/21 03:04:31;;;;;;;6.25;5.65;;;;;;;17.36;85.56;99652.24;1757592;81;21228;-78
2021/08/21 03:06:57;;;;;;;9.83;5.65;;;;;;;17.38;85.61;99651.95;1758014;81;20995;-78
2021/08/21 03:09:39;;;;;;;6.75;6.10;;;;;;;17.37;85.62;99648.43;1727826;81;21453;-78
2021/08/21 03:12:07;;;;;;;5.85;5.35;;;;;;;17.36;85.72;99651.46;1758025;81;20924;-78
2021/08/21 03:14:37;;;;;;;6.28;5.37;;;;;;;17.34;85.93;99648.22;1755945;81;21074;-78
2021/08/21 03:17:10;;;;;;;5.95;5.45;;;;;;;17.33;86.03;99650.67;1758346;81;20952;-79
2021/08/21 03:19:33;;;;;;;6.90;5.25;;;;;;;17.31;86.10;99652.32;1758198;81;20940;-80
2021/08/21 03:22:00;;;;;;;6.78;5.60;;;;;;;17.30;86.33;99643.93;1759586;81;21121;-80
2021/08/21 03:24:26;;;;;;;5.78;5.28;;;;;;;17.31;86.33;99647.46;1757968;81;21470;-79
2021/08/21 03:26:52;;;;;;;7.33;6.62;;;;;;;17.30;86.51;99649.38;1758421;81;21562;-78
2021/08/21 03:29:19;;;;;;;6.85;6.22;;;;;;;17.31;86.53;99647.46;1758026;81;20982;-78
2021/08/21 03:31:47;;;;;;;8.10;6.42;;;;;;;17.33;86.46;99648.77;1758691;81;20983;-79
2021/08/21 03:34:16;;;;;;;10.58;5.90;;;;;;;17.33;86.34;99643.33;1733163;82;21529;-80
2021/08/21 03:36:44;;;;;;;7.50;5.80;;;;;;;17.32;86.38;99646.33;1731771;81;21034;-78
2021/08/21 03:39:11;;;;;;;6.58;5.95;;;;;;;17.30;86.48;99649.92;1763743;81;21508;-80
2021/08/21 03:41:37;;;;;;;6.55;5.87;;;;;;;17.26;86.69;99653.78;1766115;81;20897;-78
2021/08/21 03:44:06;;;;;;;6.72;6.10;;;;;;;17.25;86.87;99656.23;1766820;80;21531;-80
2021/08/21 03:46:34;;;;;;;6.50;5.90;;;;;;;17.27;86.97;99660.00;1766607;80;21183;-79
2021/08/21 03:49:00;;;;;;;8.10;6.28;;;;;;;17.30;86.94;99666.23;1764498;80;21022;-80
2021/08/21 03:51:28;;;;;;;7.60;5.85;;;;;;;17.29;86.93;99657.26;1763974;81;20974;-79
2021/08/21 03:53:55;;;;;;;8.78;6.58;;;;;;;17.30;86.92;99650.73;1764768;81;20967;-81
2021/08/21 03:56:22;;;;;;;6.25;5.75;;;;;;;17.31;86.85;99655.04;1761827;81;21003;-81
2021/08/21 03:58:54;;;;;;;9.90;8.88;;;;;;;17.32;86.83;99654.48;1763123;81;21164;-79
2021/08/21 04:01:20;;;;;;;7.70;7.00;;;;;;;17.32;86.65;99651.77;1763454;81;20891;-79
2021/08/21 04:03:49;;;;;;;6.50;5.87;;;;;;;17.38;86.53;99656.04;1762946;81;21001;-79
2021/08/21 04:06:19;;;;;;;8.88;7.28;;;;;;;17.44;86.12;99660.30;1761464;81;21503;-78
2021/08/21 04:08:45;;;;;;;11.60;7.47;;;;;;;17.48;85.93;99659.15;1739480;81;20950;-78
2021/08/21 04:11:14;;;;;;;8.98;7.30;;;;;;;17.50;85.71;99660.48;1762923;81;20965;-79
2021/08/21 04:13:43;;;;;;;6.40;5.80;;;;;;;17.53;85.48;99655.80;1761322;81;20927;-80
2021/08/21 04:16:11;;;;;;;6.60;6.00;;;;;;;17.55;85.20;99659.59;1763030;81;20845;-81
2021/08/21 04:18:39;;;;;;;6.50;5.85;;;;;;;17.57;84.88;99656.83;1762782;81;20946;-83
2021/08/21 04:21:06;;;;;;;6.83;5.65;;;;;;;17.60;84.61;99662.27;1760444;81;20944;-78
2021/08/21 04:23:32;;;;;;;9.73;6.37;;;;;;;17.64;84.52;99663.28;1761100;81;21455;-81
2021/08/21 04:26:00;;;;;;;7.55;6.78;;;;;;;17.70;84.25;99663.44;1765552;80;20974;-78
2021/08/21 04:28:29;;;;;;;6.58;5.97;;;;;;;17.75;83.98;99664.72;1763599;81;20942;-78
2021/08/21 04:30:56;;;;;;;5.87;5.33;;;;;;;17.78;83.47;99666.31;1762989;81;20883;-79
2021/08/21 04:33:23;;;;;;;6.53;5.92;;;;;;;17.81;83.22;99666.25;1761597;81;21014;-79
2021/08/21 04:35:50;;;;;;;8.90;5.83;;;;;;;17.84;83.15;99664.31;1764903;81;21111;-82
2021/08/21 04:38:17;;;;;;;6.20;5.37;;;;;;;17.90;82.63;99666.37;1766262;79;20966;-80
2021/08/21 04:40:49;;;;;;;6.33;5.83;;;;;;;17.96;82.54;99678.79;1763347;81;20975;-81
2021/08/21 04:43:16;;;;;;;9.15;6.87;;;;;;;18.02;81.97;99677.61;1764871;81;20937;-79
2021/08/21 04:45:43;;;;;;;6.35;5.72;;;;;;;18.07;81.71;99670.71;1764886;81;21006;-79
2021/08/21 04:48:10;;;;;;;6.58;5.97;;;;;;;18.12;81.15;99676.88;1743617;80;21433;-82
2021/08/21 04:50:37;;;;;;;8.00;5.85;;;;;;;18.14;80.92;99678.73;1777199;80;21017;-80
2021/08/21 04:53:04;;;;;;;5.85;5.35;;;;;;;18.17;80.56;99678.15;1770267;80;20980;-81
2021/08/21 04:55:36;;;;;;;5.95;5.42;;;;;;;18.21;80.05;99680.52;1771798;80;20976;-80
2021/08/21 04:58:04;;;;;;;6.15;5.55;;;;;;;18.28;79.97;99680.11;1786974;80;20919;-79
2021/08/21 05:00:32;;;;;;;5.87;5.42;;;;;;;18.35;79.50;99683.25;1763665;81;21531;-80
2021/08/21 05:03:00;;;;;;;7.15;5.62;;;;;;;18.42;79.04;99682.28;1763608;81;21382;-80
2021/08/21 05:05:28;;;;;;;6.80;5.70;;;;;;;18.49;78.79;99685.98;1763398;81;20944;-79
2021/08/21 05:07:56;;;;;;;5.37;4.85;;;;;;;18.53;78.44;99686.47;1764413;81;20947;-82
2021/08/21 05:10:25;;;;;;;7.95;5.25;;;;;;;18.57;78.21;99688.84;1741359;81;20915;-82
2021/08/21 05:12:52;;;;;;;9.55;5.20;;;;;;;18.63;77.92;99695.81;1764754;81;21418;-82
2021/08/21 05:15:19;;;;;;;7.45;5.87;;;;;;;18.71;77.66;99702.45;1762808;81;21560;-79
2021/08/21 05:17:50;;;;;;;7.28;5.58;;;;;;;18.76;76.65;99696.91;1761400;81;20994;-83
2021/08/21 05:20:26;;;;;;;6.17;5.12;;;;;;;18.82;76.52;99698.98;1760905;81;20939;-82
2021/08/21 05:23:02;;;;;;;6.87;5.45;;;;;;;18.86;76.21;99696.70;1760124;81;21023;-81
2021/08/21 05:25:18;;;;;;;5.97;5.47;;;;;;;18.92;75.94;99696.05;1757919;81;21054;-82
2021/08/21 05:27:47;;;;;;;6.53;5.28;;;;;;;18.97;75.61;99695.39;1762524;80;20971;-81
2021/08/21 05:30:15;;;;;;;5.95;5.03;;;;;;;19.04;75.24;99700.44;1760599;81;20988;-80
2021/08/21 05:32:41;;;;;;;9.80;5.70;;;;;;;19.12;74.44;99697.80;1762326;81;20962;-81
2021/08/21 05:35:09;;;;;;;5.72;5.00;;;;;;;19.20;73.94;99696.25;1763950;81;21081;-80
2021/08/21 05:37:37;;;;;;;6.37;5.78;;;;;;;19.25;73.28;99696.14;1762344;79;21583;-82
2021/08/21 05:40:05;;;;;;;5.83;5.33;;;;;;;19.31;73.06;99694.11;1764021;80;20975;-82
2021/08/21 05:42:31;;;;;;;5.72;5.17;;;;;;;19.34;72.94;99698.38;1765601;81;20863;-85
2021/08/21 05:45:00;;;;;;;5.15;4.70;;;;;;;19.38;72.86;99693.92;1717227;81;20947;-83
2021/08/21 05:47:27;;;;;;;7.22;5.40;;;;;;;19.42;72.74;99693.58;1765442;78;21220;-83
2021/08/21 05:50:00;;;;;;;5.22;4.83;;;;;;;19.48;72.69;99692.91;1746634;77;21151;-80
2021/08/21 05:52:25;;;;;;;7.28;5.15;;;;;;;19.54;72.68;99689.77;1765345;77;20958;-80
2021/08/21 05:54:52;;;;;;;5.17;4.67;;;;;;;19.64;72.51;99691.45;1768584;79;20992;-82
2021/08/21 05:57:21;;;;;;;6.03;4.33;;;;;;;19.74;71.79;99695.86;1763982;80;21019;-81
2021/08/21 05:59:49;;;;;;;5.15;4.75;;;;;;;19.79;70.82;99693.00;1762894;80;20927;-78
2021/08/21 06:02:15;;;;;;;6.00;5.50;;;;;;;19.84;70.80;99701.07;1732156;82;21418;-79
2021/08/21 06:04:41;;;;;;;5.30;4.58;;;;;;;19.91;70.27;99702.23;1737769;81;21261;-79
2021/08/21 06:07:08;;;;;;;8.05;5.35;;;;;;;19.97;69.82;99713.28;1761308;81;20967;-80
2021/08/21 06:09:34;;;;;;;5.67;4.67;;;;;;;20.01;69.42;99703.34;1761734;81;21066;-84
2021/08/21 06:12:01;;;;;;;6.30;5.65;;;;;;;20.05;69.14;99700.79;1710549;79;21051;-83
2021/08/21 06:14:28;;;;;;;5.62;5.12;;;;;;;20.10;69.37;99696.56;1725249;83;21158;-81
2021/08/21 06:16:54;;;;;;;13.48;5.72;;;;;;;20.14;69.27;99689.39;1700577;83;20960;-83
2021/08/21 06:19:22;;;;;;;4.83;4.30;;;;;;;20.22;69.27;99698.17;1700565;84;21385;-81
2021/08/21 06:21:48;;;;;;;5.53;5.03;;;;;;;20.30;68.38;99692.50;1699849;84;21649;-83
2021/08/21 06:24:15;;;;;;;5.58;5.05;;;;;;;20.39;68.36;99704.30;1697742;84;21500;-83
2021/08/21 06:26:42;;;;;;;5.90;5.25;;;;;;;20.45;67.95;99691.56;1712351;83;21562;-81
2021/08/21 06:29:08;;;;;;;7.37;4.37;;;;;;;20.50;67.34;99692.55;1706160;83;21004;-83
2021/08/21 06:31:35;;;;;;;6.10;5.20;;;;;;;20.56;66.97;99695.39;1727447;83;21647;-84
2021/08/21 06:34:01;;;;;;;6.08;5.62;;;;;;;20.63;66.54;99696.53;1727755;83;21011;-84
2021/08/21 06:36:27;;;;;;;5.60;4.97;;;;;;;20.67;65.08;99693.41;1727630;83;21012;-83
2021/08/21 06:38:55;;;;;;;5.53;4.33;;;;;;;20.70;64.79;99685.95;1692971;84;21143;-84
2021/08/21 06:41:21;;;;;;;5.80;5.30;;;;;;;20.76;64.73;99690.17;1693106;84;21457;-83
2021/08/21 06:43:49;;;;;;;5.28;4.78;;;;;;;20.83;65.02;99688.31;1665003;86;20928;-81
2021/08/21 06:46:17;;;;;;;6.92;5.17;;;;;;;20.89;64.62;99691.16;1681751;83;20988;-85
2021/08/21 06:48:44;;;;;;;5.17;4.67;;;;;;;20.95;64.34;99698.09;1757218;80;20956;-83
2021/08/21 06:51:10;;;;;;;7.78;4.70;;;;;;;21.08;63.20;99693.61;1752921;80;21463;-83
2021/08/21 06:53:37;;;;;;;4.78;4.37;;;;;;;21.08;63.20;99693.61;1746086;82;20931;-83
2021/08/21 06:56:05;;;;;;;6.62;4.67;;;;;;;21.13;62.08;99697.56;1747110;82;20951;-86
2021/08/21 06:58:31;;;;;;;11.95;5.58;;;;;;;21.18;61.22;99691.97;1746925;82;21495;-87
2021/08/21 07:00:57;;;;;;;5.10;4.70;;;;;;;21.25;62.18;99697.20;1747362;80;21470;-84
2021/08/21 07:03:25;;;;;;;6.17;5.58;;;;;;;21.32;62.24;99704.94;1723581;81;21126;-82
2021/08/21 07:05:53;;;;;;;5.65;5.10;;;;;;;21.38;61.87;99696.83;1674907;84;21461;-82
2021/08/21 07:08:19;;;;;;;10.20;7.95;;;;;;;21.42;61.01;99703.81;1721926;82;20964;-79
2021/08/21 07:10:45;;;;;;;5.35;4.95;;;;;;;21.46;61.09;99693.84;1721915;82;20958;-81
2021/08/21 07:13:13;;;;;;;4.85;4.45;;;;;;;21.51;61.08;99699.15;1719688;82;21526;-81
2021/08/21 07:15:43;;;;;;;5.25;4.75;;;;;;;21.56;60.86;99694.88;1719289;83;20965;-82
2021/08/21 07:18:13;;;;;;;5.62;5.12;;;;;;;21.60;61.04;99695.29;1721479;82;21057;-81
2021/08/21 07:20:41;;;;;;;5.12;4.58;;;;;;;21.65;59.58;99713.48;1713573;82;20950;-83
2021/08/21 07:23:09;;;;;;;7.17;4.53;;;;;;;21.72;58.61;99704.23;1695716;83;21052;-83
2021/08/21 07:25:35;;;;;;;4.80;4.28;;;;;;;21.74;58.22;99704.13;1720392;82;21501;-81
2021/08/21 07:28:04;;;;;;;5.40;4.15;;;;;;;21.78;58.63;99711.13;1719016;82;21537;-80
2021/08/21 07:30:33;;;;;;;5.47;4.97;;;;;;;21.81;57.91;99701.48;1707292;82;21621;-82
2021/08/21 07:33:00;;;;;;;14.85;5.50;;;;;;;21.86;58.18;99708.16;1669460;83;20875;-84
2021/08/21 07:35:27;;;;;;;5.37;4.75;;;;;;;21.89;58.17;99702.02;1714240;83;20996;-85
2021/08/21 07:37:53;;;;;;;6.30;4.83;;;;;;;21.93;58.52;99705.72;1719179;82;21086;-81
2021/08/21 07:40:19;;;;;;;10.75;4.25;;;;;;;21.97;56.93;99705.34;1720888;82;21112;-78
2021/08/21 07:42:46;;;;;;;5.67;5.08;;;;;;;22.02;54.81;99712.02;1723213;82;21648;-79
2021/08/21 07:45:13;;;;;;;6.00;4.28;;;;;;;22.09;55.66;99719.19;1719281;83;21033;-79
2021/08/21 07:47:39;;;;;;;5.42;3.90;;;;;;;22.18;55.02;99706.27;1719738;82;21045;-80
2021/08/21 07:50:07;;;;;;;5.35;3.83;;;;;;;22.24;53.93;99706.34;1719468;82;21056;-78
2021/08/21 07:52:35;;;;;;;5.08;4.42;;;;;;;22.30;53.37;99716.57;1719028;82;21160;-77
2021/08/21 07:55:02;;;;;;;4.50;4.10;;;;;;;22.33;52.93;99707.69;1719212;83;21028;-81
2021/08/21 07:57:28;;;;;;;5.75;4.20;;;;;;;22.34;53.27;99707.37;1734305;82;20976;-81
2021/08/21 07:59:57;;;;;;;4.15;3.77;;;;;;;22.39;53.62;99710.50;1715073;83;21098;-81
2021/08/21 08:02:25;;;;;;;4.35;3.90;;;;;;;22.42;54.13;99705.16;1734767;82;21028;-80
2021/08/21 08:04:51;;;;;;;4.58;4.17;;;;;;;22.46;52.89;99707.47;1746117;82;21600;-82
2021/08/21 08:07:18;;;;;;;6.90;4.72;;;;;;;22.54;53.32;99708.00;1730644;82;21018;-84
2021/08/21 08:09:47;;;;;;;3.67;3.37;;;;;;;22.65;53.32;99704.89;1699323;84;21008;-83
2021/08/21 08:12:13;;;;;;;6.60;4.20;;;;;;;22.73;52.40;99708.22;1709430;83;21051;-82
2021/08/21 08:14:41;;;;;;;4.47;3.55;;;;;;;22.83;52.55;99719.59;1704337;82;21061;-81
2021/08/21 08:17:11;;;;;;;3.95;3.55;;;;;;;22.90;52.29;99719.89;1702023;83;21194;-82
2021/08/21 08:19:39;;;;;;;3.98;3.47;;;;;;;22.97;51.29;99713.30;1685817;83;21040;-85
2021/08/21 08:22:09;;;;;;;7.45;3.37;;;;;;;23.02;51.31;99717.23;1692184;84;20963;-84
2021/08/21 08:24:46;;;;;;;6.97;3.22;;;;;;;23.10;51.39;99713.41;1670566;84;21016;-82
2021/08/21 08:27:18;;;;;;;4.67;3.72;;;;;;;23.11;51.03;99711.72;1694990;84;21052;-81
2021/08/21 08:29:45;;;;;;;6.15;3.27;;;;;;;23.14;49.59;99717.90;1703571;82;21152;-82
2021/08/21 08:32:13;;;;;;;3.62;3.33;;;;;;;23.15;48.43;99715.40;1698728;84;21018;-82
2021/08/21 08:34:40;;;;;;;6.80;3.50;;;;;;;23.14;48.84;99714.34;1701942;84;21051;-83
2021/08/21 08:37:12;;;;;;;4.60;3.37;;;;;;;23.16;49.46;99714.83;1695927;82;21145;-82
2021/08/21 08:39:38;;;;;;;3.90;2.98;;;;;;;23.21;49.24;99721.50;1715688;82;20999;-84
2021/08/21 08:42:06;;;;;;;3.10;2.80;;;;;;;23.23;46.55;99710.98;1711313;82;21559;-86
2021/08/21 08:44:34;;;;;;;7.75;3.22;;;;;;;23.28;47.13;99716.27;1730096;82;20979;-83
2021/08/21 08:47:01;;;;;;;3.00;2.70;;;;;;;23.32;46.92;99720.76;1681509;83;21024;-76
2021/08/21 08:49:28;;;;;;;3.58;3.27;;;;;;;23.32;47.58;99720.76;1682873;84;21485;-82
2021/08/21 08:51:55;;;;;;;4.85;3.30;;;;;;;23.30;48.01;99720.88;1685293;83;21693;-80
2021/08/21 08:54:21;;;;;;;2.92;2.72;;;;;;;23.27;47.08;99721.52;1696516;83;21522;-81
2021/08/21 08:56:48;;;;;;;4.08;2.70;;;;;;;23.23;46.53;99701.38;1677056;85;21011;-80
2021/08/21 08:59:14;;;;;;;5.85;3.25;;;;;;;23.24;46.85;99700.24;1726456;81;20993;-78
2021/08/21 09:01:42;;;;;;;3.37;2.80;;;;;;;23.29;46.94;99721.44;1734492;80;21023;-81
2021/08/21 09:04:17;;;;;;;2.37;2.17;;;;;;;23.31;45.54;99706.80;1709022;82;21557;-77
2021/08/21 09:06:44;;;;;;;3.85;3.30;;;;;;;23.36;45.32;99704.42;1725637;83;21715;-82
2021/08/21 09:09:16;;;;;;;5.53;3.27;;;;;;;23.43;45.46;99689.04;1711101;82;21581;-77
2021/08/21 09:11:53;;;;;;;4.33;3.42;;;;;;;23.53;45.67;99691.98;1699738;83;21062;-80
2021/08/21 09:14:25;;;;;;;3.72;3.35;;;;;;;23.64;45.22;99719.84;1690878;83;21103;-77
2021/08/21 09:16:52;;;;;;;2.98;2.67;;;;;;;23.69;44.70;99705.31;1713406;83;21058;-80
2021/08/21 09:19:25;;;;;;;3.98;2.52;;;;;;;23.67;44.41;99709.55;1717284;83;21493;-82
2021/08/21 09:22:02;;;;;;;3.12;2.60;;;;;;;23.63;44.21;99722.34;1714393;83;21503;-81
2021/08/21 09:24:28;;;;;;;7.28;2.92;;;;;;;23.61;44.43;99700.70;1718844;83;20944;-81
2021/08/21 09:26:55;;;;;;;3.12;2.50;;;;;;;23.65;43.88;99720.05;1729977;82;22169;-79
2021/08/21 09:29:27;;;;;;;2.55;2.33;;;;;;;23.67;43.18;99723.28;1748248;82;21577;-80
2021/08/21 09:32:08;;;;;;;3.10;2.90;;;;;;;23.63;43.09;99720.41;1749031;82;21184;-80
2021/08/21 09:34:35;;;;;;;3.72;2.45;;;;;;;23.66;42.66;99706.00;1748944;82;20963;-81
2021/08/21 09:37:01;;;;;;;4.33;2.67;;;;;;;23.72;41.77;99706.03;1732679;82;21043;-79
2021/08/21 09:39:42;;;;;;;3.58;2.85;;;;;;;23.81;41.92;99699.88;1719588;83;21396;-79
2021/08/21 09:42:10;;;;;;;3.22;2.87;;;;;;;23.94;41.46;99704.03;1718443;83;21005;-82
2021/08/21 09:44:42;;;;;;;2.87;2.60;;;;;;;24.03;41.01;99710.28;1720605;82;21042;-80
2021/08/21 09:47:14;;;;;;;5.20;2.47;;;;;;;24.07;41.09;99718.87;1719184;83;21466;-82
2021/08/21 09:49:41;;;;;;;2.87;2.52;;;;;;;24.09;40.73;99707.53;1719583;83;21005;-83
2021/08/21 09:52:14;;;;;;;2.85;2.55;;;;;;;24.07;39.95;99714.75;1729148;82;21016;-82
2021/08/21 09:54:47;;;;;;;4.20;2.85;;;;;;;24.07;39.86;99719.45;1720677;82;26392;-83
2021/08/21 09:57:21;;;;;;;3.87;2.33;;;;;;;24.07;39.91;99702.39;1704683;83;21655;-86
2021/08/21 09:59:51;;;;;;;2.35;2.05;;;;;;;24.09;39.51;99706.16;1718275;83;21051;-80
2021/08/21 10:02:17;;;;;;;2.58;2.20;;;;;;;24.11;40.09;99732.17;1714931;82;20979;-84
2021/08/21 10:04:44;;;;;;;2.70;2.02;;;;;;;24.18;39.80;99722.81;1736333;82;20984;-85
2021/08/21 10:07:17;;;;;;;2.75;2.15;;;;;;;24.24;38.96;99720.66;1741675;82;21032;-84
2021/08/21 10:09:40;;;;;;;11.68;3.02;;;;;;;24.26;39.22;99730.19;1719560;83;20983;-85
2021/08/21 10:12:11;;;;;;;4.10;2.50;;;;;;;24.28;39.07;99724.33;1718889;83;21015;-85
2021/08/21 10:14:45;;;;;;;3.58;2.58;;;;;;;24.34;39.15;99716.11;1729691;82;21018;-82
2021/08/21 10:17:16;;;;;;;4.53;2.85;;;;;;;24.42;38.96;99712.45;1719920;83;21020;-83
2021/08/21 10:19:43;;;;;;;15.35;3.25;;;;;;;24.50;39.00;99697.00;1719308;83;21037;-76
2021/08/21 10:22:10;;;;;;;2.85;2.55;;;;;;;24.56;38.42;99712.11;1719272;83;21913;-92
2021/08/21 10:24:47;;;;;;;3.65;2.45;;;;;;;24.59;38.44;99708.70;1704560;82;20944;-82
2021/08/21 10:27:33;;;;;;;3.15;2.27;;;;;;;24.68;38.23;99711.58;1719338;83;20944;-83
2021/08/21 10:30:17;;;;;;;3.80;2.60;;;;;;;24.76;38.18;99713.97;1693933;82;21187;-84
2021/08/21 10:32:45;;;;;;;3.95;2.42;;;;;;;24.81;38.09;99724.75;1720066;83;21063;-84
2021/08/21 10:35:14;;;;;;;3.52;2.62;;;;;;;24.82;38.05;99716.73;1718327;82;21174;-91
2021/08/21 10:37:45;;;;;;;2.85;2.65;;;;;;;24.85;37.99;99704.22;1720628;82;20976;-87
2021/08/21 10:40:32;;;;;;;3.50;3.20;;;;;;;24.90;37.81;99720.53;1722269;82;21494;-90
2021/08/21 10:43:00;;;;;;;3.35;2.67;;;;;;;24.91;37.60;99721.58;1720928;82;20937;-87
2021/08/21 10:45:46;;;;;;;4.80;2.47;;;;;;;24.94;37.76;99709.09;1729518;82;20992;-87
2021/08/21 10:48:25;;;;;;;4.67;2.95;;;;;;;24.95;37.70;99699.09;1732727;82;21167;-86
2021/08/21 10:50:53;;;;;;;2.80;2.60;;;;;;;25.06;37.41;99697.48;1749639;82;20963;-87
2021/08/21 10:53:26;;;;;;;8.10;2.47;;;;;;;25.23;37.04;99697.80;1749747;82;20940;-88
2021/08/21 10:55:55;;;;;;;5.50;2.40;;;;;;;25.32;36.55;99688.05;1726404;82;20996;-89
2021/08/21 10:58:28;;;;;;;2.60;2.02;;;;;;;25.40;36.47;99709.13;1730994;82;21051;-88
2021/08/21 11:01:19;;;;;;;2.47;2.17;;;;;;;25.45;36.34;99697.30;1722930;82;21102;-89
2021/08/21 11:03:49;;;;;;;3.55;2.27;;;;;;;25.52;36.59;99700.82;1721622;83;21004;-90
2021/08/21 11:06:16;;;;;;;2.92;2.52;;;;;;;25.60;36.60;99686.16;1721913;83;20968;-88
2021/08/21 11:08:55;;;;;;;3.80;2.80;;;;;;;25.70;37.07;99695.87;1691995;82;20999;-89
2021/08/21 11:11:39;;;;;;;3.45;3.00;;;;;;;25.66;36.14;99686.71;1720656;83;21055;-91
2021/08/21 11:14:27;;;;;;;3.90;3.05;;;;;;;25.60;36.25;99695.22;1718880;83;21183;-90
2021/08/21 11:17:17;;;;;;;4.83;2.33;;;;;;;25.63;36.42;99686.81;1721770;82;20992;-90
2021/08/21 11:19:48;;;;;;;4.12;3.33;;;;;;;25.67;36.36;99677.27;1721340;82;20965;-83
2021/08/21 11:22:25;;;;;;;2.27;2.02;;;;;;;25.77;36.03;99687.22;1694866;83;21009;-84
2021/08/21 11:24:58;;;;;;;2.60;2.27;;;;;;;25.86;35.96;99686.48;1720150;83;21541;-83
2021/08/21 11:27:30;;;;;;;7.35;5.35;;;;;;;25.84;35.16;99680.55;1740466;82;21212;-84
2021/08/21 11:30:10;;;;;;;2.58;2.20;;;;;;;25.86;35.43;99687.06;1720583;82;20967;-83
2021/08/21 11:32:58;;;;;;;2.37;2.17;;;;;;;25.85;35.57;99686.86;1719262;83;20994;-85
2021/08/21 11:35:45;;;;;;;3.27;2.52;;;;;;;25.88;35.16;99682.02;1720040;82;21005;-83
2021/08/21 11:38:16;;;;;;;3.25;2.95;;;;;;;26.01;35.03;99684.92;1709118;82;21024;-85
2021/08/21 11:40:49;;;;;;;3.35;3.05;;;;;;;26.13;35.00;99682.69;1723311;82;21083;-85
2021/08/21 11:43:27;;;;;;;3.65;2.83;;;;;;;26.26;34.65;99696.08;1743822;82;20965;-91
2021/08/21 11:45:54;;;;;;;3.60;2.05;;;;;;;26.33;34.52;99678.92;1749321;82;20909;-88